sensor_id;sensor_type;location;lat;lon;timestamp;temperature;humidity
22908;DHT22;11620;50.050;8.690;2023-10-19T00:02:29;9.80;99.90
22908;DHT22;11620;50.050;8.690;2023-10-19T00:05:16;9.80;99.90
22908;DHT22;11620;50.050;8.690;2023-10-19T00:08:03;9.80;99.90
22908;DHT22;11620;50.050;8.690;2023-10-19T00:10:59;9.80;99.90
22908;DHT22;11620;50.050;8.690;2023-10-19T00:13:54;9.80;99.90
22908;DHT22;11620;50.050;8.690;2023-10-19T00:16:44;9.90;99.90
22908;DHT22;11620;50.050;8.690;2023-10-19T00:19:36;10.00;99.90
22908;DHT22;11620;50.050;8.690;2023-10-19T00:22:28;10.00;99.90
22908;DHT22;11620;50.050;8.690;2023-10-19T00:25:17;10.10;99.90
22908;DHT22;11620;50.050;8.690;2023-10-19T00:28:03;10.10;99.90
22908;DHT22;11620;50.050;8.690;2023-10-19T00:30:50;10.20;99.90
22908;DHT22;11620;50.050;8.690;2023-10-19T00:33:39;10.20;99.90
22908;DHT22;11620;50.050;8.690;2023-10-19T00:36:26;10.20;99.90
22908;DHT22;11620;50.050;8.690;2023-10-19T00:39:12;10.20;99.90
22908;DHT22;11620;50.050;8.690;2023-10-19T00:42:07;10.20;99.90
22908;DHT22;11620;50.050;8.690;2023-10-19T00:44:53;10.20;99.90
22908;DHT22;11620;50.050;8.690;2023-10-19T00:47:47;10.30;99.90
22908;DHT22;11620;50.050;8.690;2023-10-19T00:50:34;10.20;99.90
22908;DHT22;11620;50.050;8.690;2023-10-19T00:53:22;10.20;99.90
22908;DHT22;11620;50.050;8.690;2023-10-19T00:56:09;10.30;99.90
22908;DHT22;11620;50.050;8.690;2023-10-19T00:58:55;10.20;99.90
22908;DHT22;11620;50.050;8.690;2023-10-19T01:01:47;10.30;99.90
22908;DHT22;11620;50.050;8.690;2023-10-19T01:04:35;10.30;99.90
22908;DHT22;11620;50.050;8.690;2023-10-19T01:07:26;10.30;99.90
22908;DHT22;11620;50.050;8.690;2023-10-19T01:10:13;10.30;99.90
22908;DHT22;11620;50.050;8.690;2023-10-19T01:13:14;10.40;99.90
22908;DHT22;11620;50.050;8.690;2023-10-19T01:16:02;10.30;99.90
22908;DHT22;11620;50.050;8.690;2023-10-19T01:18:50;10.40;99.90
22908;DHT22;11620;50.050;8.690;2023-10-19T01:21:40;10.40;99.90
22908;DHT22;11620;50.050;8.690;2023-10-19T01:24:31;10.40;99.90
22908;DHT22;11620;50.050;8.690;2023-10-19T01:27:27;10.40;99.90
22908;DHT22;11620;50.050;8.690;2023-10-19T01:30:15;10.40;99.90
22908;DHT22;11620;50.050;8.690;2023-10-19T01:33:04;10.40;99.90
22908;DHT22;11620;50.050;8.690;2023-10-19T01:35:54;10.40;99.90
22908;DHT22;11620;50.050;8.690;2023-10-19T01:39:19;10.40;99.90
22908;DHT22;11620;50.050;8.690;2023-10-19T01:42:05;10.40;99.90
22908;DHT22;11620;50.050;8.690;2023-10-19T01:44:53;10.40;99.90
22908;DHT22;11620;50.050;8.690;2023-10-19T01:47:39;10.40;99.90
22908;DHT22;11620;50.050;8.690;2023-10-19T01:50:26;10.40;99.90
22908;DHT22;11620;50.050;8.690;2023-10-19T01:53:13;10.40;99.90
22908;DHT22;11620;50.050;8.690;2023-10-19T01:56:03;10.50;99.90
22908;DHT22;11620;50.050;8.690;2023-10-19T01:58:51;10.50;99.90
22908;DHT22;11620;50.050;8.690;2023-10-19T02:01:38;10.40;99.90
22908;DHT22;11620;50.050;8.690;2023-10-19T02:04:28;10.50;99.90
22908;DHT22;11620;50.050;8.690;2023-10-19T02:07:14;10.50;99.90
22908;DHT22;11620;50.050;8.690;2023-10-19T02:10:04;10.50;99.90
22908;DHT22;11620;50.050;8.690;2023-10-19T02:12:54;10.50;99.90
22908;DHT22;11620;50.050;8.690;2023-10-19T02:15:42;10.50;99.90
22908;DHT22;11620;50.050;8.690;2023-10-19T02:18:29;10.50;99.90
22908;DHT22;11620;50.050;8.690;2023-10-19T02:21:16;10.40;99.90
22908;DHT22;11620;50.050;8.690;2023-10-19T02:24:10;10.40;99.90
22908;DHT22;11620;50.050;8.690;2023-10-19T02:27:00;10.40;99.90
22908;DHT22;11620;50.050;8.690;2023-10-19T02:29:50;10.40;99.90
22908;DHT22;11620;50.050;8.690;2023-10-19T02:32:36;10.50;99.90
22908;DHT22;11620;50.050;8.690;2023-10-19T02:35:23;10.50;99.90
22908;DHT22;11620;50.050;8.690;2023-10-19T02:38:09;10.50;99.90
22908;DHT22;11620;50.050;8.690;2023-10-19T02:40:55;10.60;99.90
22908;DHT22;11620;50.050;8.690;2023-10-19T02:43:42;10.60;99.90
22908;DHT22;11620;50.050;8.690;2023-10-19T02:46:32;10.60;99.90
22908;DHT22;11620;50.050;8.690;2023-10-19T02:49:20;10.60;99.90
22908;DHT22;11620;50.050;8.690;2023-10-19T02:52:07;10.60;99.90
22908;DHT22;11620;50.050;8.690;2023-10-19T02:54:53;10.60;99.90
22908;DHT22;11620;50.050;8.690;2023-10-19T02:57:43;10.60;99.90
22908;DHT22;11620;50.050;8.690;2023-10-19T03:00:32;10.60;99.90
22908;DHT22;11620;50.050;8.690;2023-10-19T03:03:20;10.60;99.90
22908;DHT22;11620;50.050;8.690;2023-10-19T03:06:07;10.60;99.90
22908;DHT22;11620;50.050;8.690;2023-10-19T03:08:53;10.60;99.90
22908;DHT22;11620;50.050;8.690;2023-10-19T03:11:47;10.60;99.90
22908;DHT22;11620;50.050;8.690;2023-10-19T03:14:38;10.60;99.90
22908;DHT22;11620;50.050;8.690;2023-10-19T03:17:24;10.60;99.90
22908;DHT22;11620;50.050;8.690;2023-10-19T03:20:11;10.60;99.90
22908;DHT22;11620;50.050;8.690;2023-10-19T03:22:58;10.60;99.90
22908;DHT22;11620;50.050;8.690;2023-10-19T03:25:44;10.60;99.90
22908;DHT22;11620;50.050;8.690;2023-10-19T03:28:35;10.60;99.90
22908;DHT22;11620;50.050;8.690;2023-10-19T03:31:23;10.60;99.90
22908;DHT22;11620;50.050;8.690;2023-10-19T03:34:12;10.60;99.90
22908;DHT22;11620;50.050;8.690;2023-10-19T03:37:03;10.60;99.90
22908;DHT22;11620;50.050;8.690;2023-10-19T03:39:53;10.70;99.90
22908;DHT22;11620;50.050;8.690;2023-10-19T03:42:42;10.70;99.90
22908;DHT22;11620;50.050;8.690;2023-10-19T03:45:30;10.70;99.90
22908;DHT22;11620;50.050;8.690;2023-10-19T03:48:19;10.60;99.90
22908;DHT22;11620;50.050;8.690;2023-10-19T03:51:26;10.60;99.90
22908;DHT22;11620;50.050;8.690;2023-10-19T03:54:12;10.60;99.90
22908;DHT22;11620;50.050;8.690;2023-10-19T03:57:09;10.50;99.90
22908;DHT22;11620;50.050;8.690;2023-10-19T03:59:59;10.50;99.90
22908;DHT22;11620;50.050;8.690;2023-10-19T04:02:45;10.50;99.90
22908;DHT22;11620;50.050;8.690;2023-10-19T04:05:32;10.50;99.90
22908;DHT22;11620;50.050;8.690;2023-10-19T04:08:24;10.40;99.90
22908;DHT22;11620;50.050;8.690;2023-10-19T04:11:12;10.40;99.90
22908;DHT22;11620;50.050;8.690;2023-10-19T04:14:07;10.40;99.90
22908;DHT22;11620;50.050;8.690;2023-10-19T04:16:55;10.40;99.90
22908;DHT22;11620;50.050;8.690;2023-10-19T04:19:42;10.40;99.90
22908;DHT22;11620;50.050;8.690;2023-10-19T04:22:30;10.50;99.90
22908;DHT22;11620;50.050;8.690;2023-10-19T04:25:18;10.60;99.90
22908;DHT22;11620;50.050;8.690;2023-10-19T04:28:15;10.70;99.90
22908;DHT22;11620;50.050;8.690;2023-10-19T04:31:02;10.80;99.90
22908;DHT22;11620;50.050;8.690;2023-10-19T04:33:52;10.80;99.90
22908;DHT22;11620;50.050;8.690;2023-10-19T04:36:40;10.90;99.90
22908;DHT22;11620;50.050;8.690;2023-10-19T04:39:29;10.90;99.90
22908;DHT22;11620;50.050;8.690;2023-10-19T04:42:16;10.90;99.90
22908;DHT22;11620;50.050;8.690;2023-10-19T04:45:03;10.90;99.90
22908;DHT22;11620;50.050;8.690;2023-10-19T04:47:51;10.80;99.90
22908;DHT22;11620;50.050;8.690;2023-10-19T04:50:41;10.70;99.90
22908;DHT22;11620;50.050;8.690;2023-10-19T04:53:28;10.60;99.90
22908;DHT22;11620;50.050;8.690;2023-10-19T04:56:14;10.60;99.90
22908;DHT22;11620;50.050;8.690;2023-10-19T04:59:00;10.60;99.90
22908;DHT22;11620;50.050;8.690;2023-10-19T05:01:46;10.70;99.90
22908;DHT22;11620;50.050;8.690;2023-10-19T05:04:33;10.60;99.90
22908;DHT22;11620;50.050;8.690;2023-10-19T05:07:19;10.60;99.90
22908;DHT22;11620;50.050;8.690;2023-10-19T05:10:06;10.60;99.90
22908;DHT22;11620;50.050;8.690;2023-10-19T05:12:53;10.70;99.90
22908;DHT22;11620;50.050;8.690;2023-10-19T05:15:41;10.70;99.90
22908;DHT22;11620;50.050;8.690;2023-10-19T05:18:28;10.80;99.90
22908;DHT22;11620;50.050;8.690;2023-10-19T05:21:15;10.70;99.90
22908;DHT22;11620;50.050;8.690;2023-10-19T05:24:02;10.70;99.90
22908;DHT22;11620;50.050;8.690;2023-10-19T05:26:48;10.60;99.90
22908;DHT22;11620;50.050;8.690;2023-10-19T05:29:35;10.70;99.90
22908;DHT22;11620;50.050;8.690;2023-10-19T05:32:22;10.70;99.90
22908;DHT22;11620;50.050;8.690;2023-10-19T05:35:08;10.70;99.90
22908;DHT22;11620;50.050;8.690;2023-10-19T05:37:59;10.60;99.90
22908;DHT22;11620;50.050;8.690;2023-10-19T05:40:47;10.60;99.90
22908;DHT22;11620;50.050;8.690;2023-10-19T05:43:33;10.60;99.90
22908;DHT22;11620;50.050;8.690;2023-10-19T05:46:23;10.70;99.90
22908;DHT22;11620;50.050;8.690;2023-10-19T05:49:11;10.80;99.90
22908;DHT22;11620;50.050;8.690;2023-10-19T05:51:57;10.80;99.90
22908;DHT22;11620;50.050;8.690;2023-10-19T05:54:43;10.80;99.90
22908;DHT22;11620;50.050;8.690;2023-10-19T05:57:30;10.90;99.90
22908;DHT22;11620;50.050;8.690;2023-10-19T06:00:16;11.00;99.90
22908;DHT22;11620;50.050;8.690;2023-10-19T06:03:04;11.00;99.90
22908;DHT22;11620;50.050;8.690;2023-10-19T06:05:50;11.00;99.90
22908;DHT22;11620;50.050;8.690;2023-10-19T06:08:37;11.10;99.90
22908;DHT22;11620;50.050;8.690;2023-10-19T06:11:23;11.10;99.90
22908;DHT22;11620;50.050;8.690;2023-10-19T06:14:09;11.20;99.90
22908;DHT22;11620;50.050;8.690;2023-10-19T06:16:56;11.20;99.90
22908;DHT22;11620;50.050;8.690;2023-10-19T06:19:42;11.30;99.90
22908;DHT22;11620;50.050;8.690;2023-10-19T06:22:28;11.30;99.90
22908;DHT22;11620;50.050;8.690;2023-10-19T06:25:15;11.40;99.90
22908;DHT22;11620;50.050;8.690;2023-10-19T06:28:04;11.50;99.90
22908;DHT22;11620;50.050;8.690;2023-10-19T06:30:50;11.50;99.90
22908;DHT22;11620;50.050;8.690;2023-10-19T06:33:37;11.50;99.90
22908;DHT22;11620;50.050;8.690;2023-10-19T06:36:28;11.50;99.90
22908;DHT22;11620;50.050;8.690;2023-10-19T06:39:18;11.40;99.90
22908;DHT22;11620;50.050;8.690;2023-10-19T06:42:08;11.40;99.90
22908;DHT22;11620;50.050;8.690;2023-10-19T06:44:59;11.40;99.90
22908;DHT22;11620;50.050;8.690;2023-10-19T06:47:47;11.30;99.90
22908;DHT22;11620;50.050;8.690;2023-10-19T06:50:34;11.30;99.90
22908;DHT22;11620;50.050;8.690;2023-10-19T06:53:22;11.40;99.90
22908;DHT22;11620;50.050;8.690;2023-10-19T06:56:08;11.50;99.90
22908;DHT22;11620;50.050;8.690;2023-10-19T06:58:55;11.50;99.90
22908;DHT22;11620;50.050;8.690;2023-10-19T07:01:41;11.60;99.90
22908;DHT22;11620;50.050;8.690;2023-10-19T07:04:28;11.60;99.90
22908;DHT22;11620;50.050;8.690;2023-10-19T07:07:15;11.50;99.90
22908;DHT22;11620;50.050;8.690;2023-10-19T07:10:01;11.60;99.90
22908;DHT22;11620;50.050;8.690;2023-10-19T07:12:53;11.60;99.90
22908;DHT22;11620;50.050;8.690;2023-10-19T07:15:40;11.50;99.90
22908;DHT22;11620;50.050;8.690;2023-10-19T07:18:27;11.50;99.90
22908;DHT22;11620;50.050;8.690;2023-10-19T07:21:14;11.60;99.90
22908;DHT22;11620;50.050;8.690;2023-10-19T07:24:01;11.50;99.90
22908;DHT22;11620;50.050;8.690;2023-10-19T07:26:51;11.60;99.90
22908;DHT22;11620;50.050;8.690;2023-10-19T07:29:39;11.70;99.90
22908;DHT22;11620;50.050;8.690;2023-10-19T07:32:29;11.80;99.90
22908;DHT22;11620;50.050;8.690;2023-10-19T07:35:15;11.90;99.90
22908;DHT22;11620;50.050;8.690;2023-10-19T07:38:01;11.80;99.90
22908;DHT22;11620;50.050;8.690;2023-10-19T07:40:50;11.90;99.90
22908;DHT22;11620;50.050;8.690;2023-10-19T07:43:39;11.90;99.90
22908;DHT22;11620;50.050;8.690;2023-10-19T07:46:25;11.90;99.90
22908;DHT22;11620;50.050;8.690;2023-10-19T07:49:12;11.80;99.90
22908;DHT22;11620;50.050;8.690;2023-10-19T07:52:00;11.90;99.90
22908;DHT22;11620;50.050;8.690;2023-10-19T07:54:47;12.00;99.90
22908;DHT22;11620;50.050;8.690;2023-10-19T07:57:33;12.00;99.90
22908;DHT22;11620;50.050;8.690;2023-10-19T08:00:21;11.90;99.90
22908;DHT22;11620;50.050;8.690;2023-10-19T08:03:07;11.90;99.90
22908;DHT22;11620;50.050;8.690;2023-10-19T08:05:54;11.90;99.90
22908;DHT22;11620;50.050;8.690;2023-10-19T08:08:41;11.80;99.90
22908;DHT22;11620;50.050;8.690;2023-10-19T08:11:28;11.90;99.90
22908;DHT22;11620;50.050;8.690;2023-10-19T08:14:14;12.00;99.90
22908;DHT22;11620;50.050;8.690;2023-10-19T08:17:00;11.90;99.90
22908;DHT22;11620;50.050;8.690;2023-10-19T08:19:47;11.90;99.90
22908;DHT22;11620;50.050;8.690;2023-10-19T08:22:33;12.00;99.90
22908;DHT22;11620;50.050;8.690;2023-10-19T08:25:20;12.00;99.90
22908;DHT22;11620;50.050;8.690;2023-10-19T08:28:06;12.10;99.90
22908;DHT22;11620;50.050;8.690;2023-10-19T08:30:53;12.20;99.90
22908;DHT22;11620;50.050;8.690;2023-10-19T08:33:46;12.20;99.90
22908;DHT22;11620;50.050;8.690;2023-10-19T08:36:33;12.30;99.90
22908;DHT22;11620;50.050;8.690;2023-10-19T08:39:20;12.50;99.90
22908;DHT22;11620;50.050;8.690;2023-10-19T08:42:06;12.50;99.90
22908;DHT22;11620;50.050;8.690;2023-10-19T08:44:53;12.60;99.90
22908;DHT22;11620;50.050;8.690;2023-10-19T08:47:44;12.60;99.90
22908;DHT22;11620;50.050;8.690;2023-10-19T08:50:34;12.50;99.90
22908;DHT22;11620;50.050;8.690;2023-10-19T08:53:21;12.60;99.90
22908;DHT22;11620;50.050;8.690;2023-10-19T08:56:08;12.60;99.90
22908;DHT22;11620;50.050;8.690;2023-10-19T08:58:55;12.60;99.90
22908;DHT22;11620;50.050;8.690;2023-10-19T09:01:42;12.70;99.90
22908;DHT22;11620;50.050;8.690;2023-10-19T09:04:29;12.80;99.90
22908;DHT22;11620;50.050;8.690;2023-10-19T09:07:16;12.90;99.90
22908;DHT22;11620;50.050;8.690;2023-10-19T09:10:04;12.90;99.90
22908;DHT22;11620;50.050;8.690;2023-10-19T09:13:03;12.90;99.90
22908;DHT22;11620;50.050;8.690;2023-10-19T09:15:49;12.90;99.90
22908;DHT22;11620;50.050;8.690;2023-10-19T09:18:39;12.90;99.90
22908;DHT22;11620;50.050;8.690;2023-10-19T09:21:25;13.00;99.90
22908;DHT22;11620;50.050;8.690;2023-10-19T09:24:12;13.10;99.90
22908;DHT22;11620;50.050;8.690;2023-10-19T09:26:58;13.20;99.90
22908;DHT22;11620;50.050;8.690;2023-10-19T09:29:44;13.20;99.90
22908;DHT22;11620;50.050;8.690;2023-10-19T09:32:31;13.30;99.90
22908;DHT22;11620;50.050;8.690;2023-10-19T09:35:19;13.50;99.90
22908;DHT22;11620;50.050;8.690;2023-10-19T09:38:05;13.50;99.90
22908;DHT22;11620;50.050;8.690;2023-10-19T09:40:54;13.50;99.90
22908;DHT22;11620;50.050;8.690;2023-10-19T09:46:37;13.80;99.90
22908;DHT22;11620;50.050;8.690;2023-10-19T09:49:25;14.10;99.90
22908;DHT22;11620;50.050;8.690;2023-10-19T09:52:14;14.40;99.90
22908;DHT22;11620;50.050;8.690;2023-10-19T09:58:04;15.20;99.90
22908;DHT22;11620;50.050;8.690;2023-10-19T10:00:54;15.60;99.90
22908;DHT22;11620;50.050;8.690;2023-10-19T10:06:58;16.70;99.90
22908;DHT22;11620;50.050;8.690;2023-10-19T10:09:45;17.00;99.90
22908;DHT22;11620;50.050;8.690;2023-10-19T10:12:32;17.10;99.90
22908;DHT22;11620;50.050;8.690;2023-10-19T10:15:38;17.00;99.90
22908;DHT22;11620;50.050;8.690;2023-10-19T10:18:29;16.70;99.90
22908;DHT22;11620;50.050;8.690;2023-10-19T10:24:03;16.80;99.90
22908;DHT22;11620;50.050;8.690;2023-10-19T10:26:59;17.00;99.90
22908;DHT22;11620;50.050;8.690;2023-10-19T10:29:56;17.00;99.90
22908;DHT22;11620;50.050;8.690;2023-10-19T10:32:51;17.00;99.90
22908;DHT22;11620;50.050;8.690;2023-10-19T10:38:33;16.90;99.90
22908;DHT22;11620;50.050;8.690;2023-10-19T10:41:25;17.10;99.90
22908;DHT22;11620;50.050;8.690;2023-10-19T10:44:14;17.20;99.90
22908;DHT22;11620;50.050;8.690;2023-10-19T10:47:01;16.80;99.90
22908;DHT22;11620;50.050;8.690;2023-10-19T10:49:53;16.90;99.90
22908;DHT22;11620;50.050;8.690;2023-10-19T10:52:40;17.30;99.90
22908;DHT22;11620;50.050;8.690;2023-10-19T10:55:26;17.50;99.90
22908;DHT22;11620;50.050;8.690;2023-10-19T10:58:17;17.40;99.90
22908;DHT22;11620;50.050;8.690;2023-10-19T11:01:05;17.50;99.90
22908;DHT22;11620;50.050;8.690;2023-10-19T11:04:11;17.90;99.90
22908;DHT22;11620;50.050;8.690;2023-10-19T11:06:57;17.70;99.90
22908;DHT22;11620;50.050;8.690;2023-10-19T11:09:45;17.80;99.90
22908;DHT22;11620;50.050;8.690;2023-10-19T11:12:32;18.00;99.90
22908;DHT22;11620;50.050;8.690;2023-10-19T11:15:21;17.90;99.90
22908;DHT22;11620;50.050;8.690;2023-10-19T11:18:07;17.80;99.90
22908;DHT22;11620;50.050;8.690;2023-10-19T11:20:54;17.40;99.90
22908;DHT22;11620;50.050;8.690;2023-10-19T11:23:42;17.30;99.90
22908;DHT22;11620;50.050;8.690;2023-10-19T11:26:28;17.10;99.90
22908;DHT22;11620;50.050;8.690;2023-10-19T11:29:16;17.00;99.90
22908;DHT22;11620;50.050;8.690;2023-10-19T11:32:03;17.00;99.90
22908;DHT22;11620;50.050;8.690;2023-10-19T11:34:49;16.80;99.90
22908;DHT22;11620;50.050;8.690;2023-10-19T11:37:49;17.00;99.90
22908;DHT22;11620;50.050;8.690;2023-10-19T11:40:36;16.80;99.90
22908;DHT22;11620;50.050;8.690;2023-10-19T11:43:22;16.70;99.90
22908;DHT22;11620;50.050;8.690;2023-10-19T11:46:09;16.90;99.90
22908;DHT22;11620;50.050;8.690;2023-10-19T11:48:55;17.00;99.90
22908;DHT22;11620;50.050;8.690;2023-10-19T11:51:42;17.00;99.90
22908;DHT22;11620;50.050;8.690;2023-10-19T11:54:29;17.10;99.90
22908;DHT22;11620;50.050;8.690;2023-10-19T11:57:17;17.10;99.90
22908;DHT22;11620;50.050;8.690;2023-10-19T12:00:04;17.20;99.90
22908;DHT22;11620;50.050;8.690;2023-10-19T12:02:54;17.20;99.90
22908;DHT22;11620;50.050;8.690;2023-10-19T12:05:41;17.20;99.90
22908;DHT22;11620;50.050;8.690;2023-10-19T12:08:28;17.10;99.90
22908;DHT22;11620;50.050;8.690;2023-10-19T12:11:14;17.20;99.90
22908;DHT22;11620;50.050;8.690;2023-10-19T12:14:01;17.20;99.90
22908;DHT22;11620;50.050;8.690;2023-10-19T12:16:50;17.20;99.90
22908;DHT22;11620;50.050;8.690;2023-10-19T12:19:36;17.30;99.90
22908;DHT22;11620;50.050;8.690;2023-10-19T12:22:23;17.20;99.90
22908;DHT22;11620;50.050;8.690;2023-10-19T12:24:50;17.30;99.90
22908;DHT22;11620;50.050;8.690;2023-10-19T12:27:17;17.30;99.90
22908;DHT22;11620;50.050;8.690;2023-10-19T12:29:44;17.30;99.90
22908;DHT22;11620;50.050;8.690;2023-10-19T12:32:10;17.30;99.90
22908;DHT22;11620;50.050;8.690;2023-10-19T12:34:40;17.30;99.90
22908;DHT22;11620;50.050;8.690;2023-10-19T12:37:07;17.30;99.90
22908;DHT22;11620;50.050;8.690;2023-10-19T12:39:35;17.20;99.90
22908;DHT22;11620;50.050;8.690;2023-10-19T12:42:04;17.10;99.90
22908;DHT22;11620;50.050;8.690;2023-10-19T12:44:30;17.00;99.90
22908;DHT22;11620;50.050;8.690;2023-10-19T12:46:57;17.00;99.90
22908;DHT22;11620;50.050;8.690;2023-10-19T12:49:24;17.00;99.90
22908;DHT22;11620;50.050;8.690;2023-10-19T12:51:52;16.90;99.90
22908;DHT22;11620;50.050;8.690;2023-10-19T12:54:18;16.90;99.90
22908;DHT22;11620;50.050;8.690;2023-10-19T12:56:44;16.80;99.90
22908;DHT22;11620;50.050;8.690;2023-10-19T12:59:11;16.80;99.90
22908;DHT22;11620;50.050;8.690;2023-10-19T13:01:37;16.80;99.90
22908;DHT22;11620;50.050;8.690;2023-10-19T13:04:03;16.70;99.90
22908;DHT22;11620;50.050;8.690;2023-10-19T13:06:42;16.70;99.90
22908;DHT22;11620;50.050;8.690;2023-10-19T13:09:08;16.50;99.90
22908;DHT22;11620;50.050;8.690;2023-10-19T13:11:35;16.50;99.90
22908;DHT22;11620;50.050;8.690;2023-10-19T13:14:01;16.50;99.90
22908;DHT22;11620;50.050;8.690;2023-10-19T13:16:27;16.50;99.90
22908;DHT22;11620;50.050;8.690;2023-10-19T13:18:53;16.50;99.90
22908;DHT22;11620;50.050;8.690;2023-10-19T13:21:20;16.60;99.90
22908;DHT22;11620;50.050;8.690;2023-10-19T13:23:53;16.60;99.90
22908;DHT22;11620;50.050;8.690;2023-10-19T13:26:19;16.70;99.90
22908;DHT22;11620;50.050;8.690;2023-10-19T13:28:46;16.70;99.90
22908;DHT22;11620;50.050;8.690;2023-10-19T13:31:13;16.80;99.90
22908;DHT22;11620;50.050;8.690;2023-10-19T13:33:41;16.80;99.90
22908;DHT22;11620;50.050;8.690;2023-10-19T13:36:09;16.80;99.90
22908;DHT22;11620;50.050;8.690;2023-10-19T13:38:35;16.80;99.90
22908;DHT22;11620;50.050;8.690;2023-10-19T13:41:05;16.70;99.90
22908;DHT22;11620;50.050;8.690;2023-10-19T13:43:40;16.70;99.90
22908;DHT22;11620;50.050;8.690;2023-10-19T13:46:08;16.70;99.90
22908;DHT22;11620;50.050;8.690;2023-10-19T13:48:34;16.70;99.90
22908;DHT22;11620;50.050;8.690;2023-10-19T13:51:00;16.50;99.90
22908;DHT22;11620;50.050;8.690;2023-10-19T13:57:08;16.30;99.90
22908;DHT22;11620;50.050;8.690;2023-10-19T13:59:41;15.90;99.90
22908;DHT22;11620;50.050;8.690;2023-10-19T14:02:07;15.80;99.90
22908;DHT22;11620;50.050;8.690;2023-10-19T14:04:33;15.70;99.90
22908;DHT22;11620;50.050;8.690;2023-10-19T14:06:59;15.50;99.90
22908;DHT22;11620;50.050;8.690;2023-10-19T14:09:25;15.50;99.90
22908;DHT22;11620;50.050;8.690;2023-10-19T14:11:53;15.20;99.90
22908;DHT22;11620;50.050;8.690;2023-10-19T14:14:19;15.10;99.90
22908;DHT22;11620;50.050;8.690;2023-10-19T14:16:45;14.90;99.90
22908;DHT22;11620;50.050;8.690;2023-10-19T14:19:11;14.80;99.90
22908;DHT22;11620;50.050;8.690;2023-10-19T14:21:37;14.80;99.90
22908;DHT22;11620;50.050;8.690;2023-10-19T14:24:06;14.90;99.90
22908;DHT22;11620;50.050;8.690;2023-10-19T14:26:34;14.90;99.90
22908;DHT22;11620;50.050;8.690;2023-10-19T14:29:00;15.00;99.90
22908;DHT22;11620;50.050;8.690;2023-10-19T14:31:27;15.00;99.90
22908;DHT22;11620;50.050;8.690;2023-10-19T14:33:53;15.00;99.90
22908;DHT22;11620;50.050;8.690;2023-10-19T14:36:19;14.90;99.90
22908;DHT22;11620;50.050;8.690;2023-10-19T14:38:45;15.00;99.90
22908;DHT22;11620;50.050;8.690;2023-10-19T14:41:12;15.10;99.90
22908;DHT22;11620;50.050;8.690;2023-10-19T14:43:38;15.10;99.90
22908;DHT22;11620;50.050;8.690;2023-10-19T14:46:06;15.10;99.90
22908;DHT22;11620;50.050;8.690;2023-10-19T14:48:33;15.10;99.90
22908;DHT22;11620;50.050;8.690;2023-10-19T14:51:00;14.90;99.90
22908;DHT22;11620;50.050;8.690;2023-10-19T14:53:27;14.70;99.90
22908;DHT22;11620;50.050;8.690;2023-10-19T14:55:56;14.70;99.90
22908;DHT22;11620;50.050;8.690;2023-10-19T14:58:26;14.70;99.90
22908;DHT22;11620;50.050;8.690;2023-10-19T15:00:54;14.70;99.90
22908;DHT22;11620;50.050;8.690;2023-10-19T15:03:21;14.60;99.90
22908;DHT22;11620;50.050;8.690;2023-10-19T15:05:50;14.60;99.90
22908;DHT22;11620;50.050;8.690;2023-10-19T15:08:21;14.50;99.90
22908;DHT22;11620;50.050;8.690;2023-10-19T15:10:49;14.50;99.90
22908;DHT22;11620;50.050;8.690;2023-10-19T15:13:17;14.60;99.90
22908;DHT22;11620;50.050;8.690;2023-10-19T15:15:43;14.60;99.90
22908;DHT22;11620;50.050;8.690;2023-10-19T15:18:09;14.70;99.90
22908;DHT22;11620;50.050;8.690;2023-10-19T15:20:35;14.90;99.90
22908;DHT22;11620;50.050;8.690;2023-10-19T15:23:01;14.90;99.90
22908;DHT22;11620;50.050;8.690;2023-10-19T15:25:27;15.00;99.90
22908;DHT22;11620;50.050;8.690;2023-10-19T15:27:54;15.10;99.90
22908;DHT22;11620;50.050;8.690;2023-10-19T15:30:21;15.00;99.90
22908;DHT22;11620;50.050;8.690;2023-10-19T15:32:49;15.10;99.90
22908;DHT22;11620;50.050;8.690;2023-10-19T15:35:35;15.10;99.90
22908;DHT22;11620;50.050;8.690;2023-10-19T15:38:22;15.10;99.90
22908;DHT22;11620;50.050;8.690;2023-10-19T15:41:09;15.00;99.90
22908;DHT22;11620;50.050;8.690;2023-10-19T15:43:56;15.10;99.90
22908;DHT22;11620;50.050;8.690;2023-10-19T15:46:42;15.10;99.90
22908;DHT22;11620;50.050;8.690;2023-10-19T15:49:30;15.10;99.90
22908;DHT22;11620;50.050;8.690;2023-10-19T15:52:21;15.20;99.90
22908;DHT22;11620;50.050;8.690;2023-10-19T15:55:09;15.20;99.90
22908;DHT22;11620;50.050;8.690;2023-10-19T15:57:56;15.10;99.90
22908;DHT22;11620;50.050;8.690;2023-10-19T16:00:43;15.10;99.90
22908;DHT22;11620;50.050;8.690;2023-10-19T16:03:29;15.00;99.90
22908;DHT22;11620;50.050;8.690;2023-10-19T16:06:15;14.90;99.90
22908;DHT22;11620;50.050;8.690;2023-10-19T16:09:02;14.90;99.90
22908;DHT22;11620;50.050;8.690;2023-10-19T16:11:50;14.80;99.90
22908;DHT22;11620;50.050;8.690;2023-10-19T16:14:38;14.70;99.90
22908;DHT22;11620;50.050;8.690;2023-10-19T16:17:26;14.60;99.90
22908;DHT22;11620;50.050;8.690;2023-10-19T16:20:13;14.60;99.90
22908;DHT22;11620;50.050;8.690;2023-10-19T16:22:59;14.50;99.90
22908;DHT22;11620;50.050;8.690;2023-10-19T16:25:46;14.40;99.90
22908;DHT22;11620;50.050;8.690;2023-10-19T16:28:32;14.40;99.90
22908;DHT22;11620;50.050;8.690;2023-10-19T16:31:18;14.40;99.90
22908;DHT22;11620;50.050;8.690;2023-10-19T16:34:05;14.40;99.90
22908;DHT22;11620;50.050;8.690;2023-10-19T16:36:51;14.50;99.90
22908;DHT22;11620;50.050;8.690;2023-10-19T16:39:38;14.50;99.90
22908;DHT22;11620;50.050;8.690;2023-10-19T16:42:24;14.50;99.90
22908;DHT22;11620;50.050;8.690;2023-10-19T16:45:11;14.60;99.90
22908;DHT22;11620;50.050;8.690;2023-10-19T16:47:57;14.60;99.90
22908;DHT22;11620;50.050;8.690;2023-10-19T16:50:44;14.60;99.90
22908;DHT22;11620;50.050;8.690;2023-10-19T16:53:30;14.60;99.90
22908;DHT22;11620;50.050;8.690;2023-10-19T16:56:16;14.60;99.90
22908;DHT22;11620;50.050;8.690;2023-10-19T16:59:03;14.60;99.90
22908;DHT22;11620;50.050;8.690;2023-10-19T17:01:51;14.50;99.90
22908;DHT22;11620;50.050;8.690;2023-10-19T17:04:37;14.60;99.90
22908;DHT22;11620;50.050;8.690;2023-10-19T17:07:26;14.50;99.90
22908;DHT22;11620;50.050;8.690;2023-10-19T17:10:14;14.60;99.90
22908;DHT22;11620;50.050;8.690;2023-10-19T17:13:00;14.50;99.90
22908;DHT22;11620;50.050;8.690;2023-10-19T17:15:47;14.60;99.90
22908;DHT22;11620;50.050;8.690;2023-10-19T17:18:34;14.50;99.90
22908;DHT22;11620;50.050;8.690;2023-10-19T17:21:20;14.50;99.90
22908;DHT22;11620;50.050;8.690;2023-10-19T17:24:07;14.50;99.90
22908;DHT22;11620;50.050;8.690;2023-10-19T17:26:53;14.50;99.90
22908;DHT22;11620;50.050;8.690;2023-10-19T17:29:40;14.50;99.90
22908;DHT22;11620;50.050;8.690;2023-10-19T17:32:28;14.50;99.90
22908;DHT22;11620;50.050;8.690;2023-10-19T17:35:14;14.50;99.90